Time;durP1;ratioP1;P1;durP2;ratioP2;P2;SDS_P1;SDS_P2;PMS_P1;PMS_P2;Temp;Humidity;BMP_temperature;BMP_pressure;BME280_temperature;BME280_humidity;BME280_pressure;Samples;Min_cycle;Max_cycle;Signal;HPM_P1;HPM_P2
2024/01/11 00:00:51;;;;;;;40.37;19.93;;;-4.30;62.50;;;-5.80;75.43;98996.63;5046488;28;20461;-73
2024/01/11 00:03:18;;;;;;;36.27;19.47;;;-4.30;62.70;;;-5.86;75.48;99012.75;5038116;28;20470;-73
2024/01/11 00:05:45;;;;;;;32.57;19.10;;;-4.40;62.90;;;-5.83;75.71;99008.16;5046999;28;20461;-73
2024/01/11 00:08:13;;;;;;;30.00;20.40;;;-4.40;62.70;;;-5.90;75.73;99013.84;5049093;28;20451;-73
2024/01/11 00:10:40;;;;;;;33.90;18.70;;;-4.50;62.80;;;-5.98;76.13;99015.16;5052389;28;20527;-72
2024/01/11 00:13:07;;;;;;;37.27;20.67;;;-4.60;63.50;;;-5.97;76.15;99014.22;5061573;28;20445;-73
2024/01/11 00:15:36;;;;;;;38.50;21.00;;;-4.60;63.80;;;-6.06;76.28;98996.31;5048143;28;20457;-75
2024/01/11 00:18:04;;;;;;;36.40;20.10;;;-4.60;63.90;;;-5.87;75.64;99016.31;5037452;28;20473;-74
2024/01/11 00:20:32;;;;;;;33.10;18.87;;;-4.50;63.90;;;-5.80;75.39;99017.69;5053733;28;20462;-73
2024/01/11 00:22:59;;;;;;;33.73;21.47;;;-4.40;63.80;;;-5.81;75.18;99013.34;5049442;28;20516;-76
2024/01/11 00:25:26;;;;;;;32.93;20.37;;;-4.40;63.40;;;-5.73;75.12;99016.38;5050087;28;20497;-71
2024/01/11 00:27:53;;;;;;;33.03;20.73;;;-4.30;63.20;;;-5.77;74.91;99016.63;5049371;28;20461;-72
2024/01/11 00:30:22;;;;;;;37.83;19.23;;;-4.30;63.00;;;-5.74;74.89;99019.94;5043984;28;20447;-74
2024/01/11 00:32:51;;;;;;;38.73;20.63;;;-4.30;62.90;;;-5.73;74.81;99016.38;5047745;28;20988;-76
2024/01/11 00:35:18;;;;;;;33.87;19.87;;;-4.30;62.80;;;-5.74;74.77;99017.31;5045107;28;20460;-73
2024/01/11 00:37:45;;;;;;;32.87;19.03;;;-4.30;62.80;;;-5.74;74.89;99019.94;5044870;28;20478;-75
2024/01/11 00:40:12;;;;;;;33.30;19.00;;;-4.30;62.90;;;-5.73;74.95;99018.19;5043442;28;20454;-75
2024/01/11 00:42:40;;;;;;;32.47;18.87;;;-4.30;63.00;;;-5.82;74.87;99011.66;5048815;28;20474;-75
2024/01/11 00:45:08;;;;;;;40.60;21.40;;;-4.30;62.80;;;-5.77;74.64;99022.75;5053344;28;20536;-73
2024/01/11 00:47:35;;;;;;;37.77;20.73;;;-4.40;63.00;;;-5.79;74.81;99014.09;5049012;28;20452;-74
2024/01/11 00:50:04;;;;;;;32.83;19.60;;;-4.40;62.90;;;-5.80;74.98;99014.19;5041074;28;20554;-75
2024/01/11 00:52:32;;;;;;;36.63;20.13;;;-4.30;62.90;;;-5.83;75.23;99017.84;5047816;28;20458;-75
2024/01/11 00:54:59;;;;;;;41.50;22.00;;;-4.40;63.00;;;-5.85;75.19;99025.81;5048827;28;20450;-76
2024/01/11 00:57:27;;;;;;;31.70;18.80;;;-4.30;63.00;;;-5.76;74.87;99031.50;5042247;28;20467;-69
2024/01/11 00:59:54;;;;;;;36.67;20.37;;;-4.30;62.90;;;-5.82;75.44;99024.81;5038791;28;20441;-74
2024/01/11 01:02:21;;;;;;;37.90;18.83;;;-4.30;62.90;;;-5.79;74.91;99029.91;5035294;28;20457;-73
2024/01/11 01:04:49;;;;;;;30.00;18.90;;;-4.30;62.90;;;-5.74;74.79;99033.13;5043812;28;20527;-76
2024/01/11 01:07:17;;;;;;;34.23;20.40;;;-4.30;62.80;;;-5.82;75.02;99024.81;5041663;28;20453;-74
2024/01/11 01:09:44;;;;;;;30.10;17.60;;;-4.30;62.80;;;-5.80;75.04;99025.56;5043316;28;20447;-76
2024/01/11 01:12:11;;;;;;;37.60;20.20;;;-4.30;63.00;;;-5.82;74.76;99030.09;5042329;28;20455;-72
2024/01/11 01:14:39;;;;;;;32.00;19.43;;;-4.30;62.90;;;-5.77;74.89;99040.31;5046642;28;20463;-74
2024/01/11 01:17:06;;;;;;;37.73;20.60;;;-4.30;63.10;;;-5.87;74.67;99037.38;5049064;28;20466;-73
2024/01/11 01:19:33;;;;;;;31.10;17.73;;;-4.30;62.90;;;-5.85;74.95;99033.72;5047354;28;20572;-76
2024/01/11 01:22:01;;;;;;;33.67;18.83;;;-4.30;62.80;;;-5.81;74.91;99033.53;5049025;28;20455;-75
2024/01/11 01:24:29;;;;;;;33.60;18.87;;;-4.30;62.90;;;-5.93;75.38;99025.41;5042608;28;20460;-74
2024/01/11 01:26:56;;;;;;;33.93;18.33;;;-4.40;62.80;;;-5.96;75.37;99028.22;5033974;28;20442;-75
2024/01/11 01:29:24;;;;;;;32.50;19.57;;;-4.50;63.40;;;-5.91;75.63;99025.31;5044440;28;20453;-75
2024/01/11 01:31:51;;;;;;;32.13;18.57;;;-4.50;63.50;;;-6.02;75.50;99011.00;5037522;28;20504;-73
2024/01/11 01:34:18;;;;;;;27.13;18.57;;;-4.50;64.00;;;-6.01;75.63;99031.09;5038648;28;20473;-74
2024/01/11 01:36:46;;;;;;;30.00;19.10;;;-4.50;63.70;;;-5.94;75.40;99025.50;5044890;28;20640;-73
2024/01/11 01:39:13;;;;;;;27.83;18.60;;;-4.50;63.60;;;-6.00;75.55;99037.22;5045022;28;20473;-74
2024/01/11 01:41:42;;;;;;;32.80;18.50;;;-4.50;63.50;;;-6.00;75.66;99038.03;5045096;28;20449;-73
2024/01/11 01:44:09;;;;;;;33.70;18.63;;;-4.60;63.80;;;-6.12;76.19;99030.88;5044885;28;20438;-74
2024/01/11 01:46:37;;;;;;;31.87;17.00;;;-4.60;63.70;;;-6.03;76.02;99021.63;5031607;28;20449;-74
2024/01/11 01:49:05;;;;;;;37.93;20.20;;;-4.60;64.20;;;-6.02;75.87;99024.16;5051320;28;20461;-77
2024/01/11 01:51:34;;;;;;;35.03;19.43;;;-4.50;64.40;;;-6.01;75.67;99040.81;5040885;28;20450;-75
2024/01/11 01:54:04;;;;;;;32.50;19.10;;;-4.50;64.10;;;-6.00;75.98;99031.94;5040334;28;20845;-74
2024/01/11 01:56:31;;;;;;;36.20;17.63;;;-4.60;64.00;;;-6.05;75.78;99024.34;5037013;28;21197;-73
2024/01/11 01:59:02;;;;;;;31.33;18.20;;;-4.60;64.10;;;-6.00;75.92;99032.78;5048287;28;20565;-76
2024/01/11 02:01:30;;;;;;;31.83;18.90;;;-4.60;64.20;;;-6.10;76.32;99036.91;5041901;28;20448;-74
2024/01/11 02:03:57;;;;;;;37.47;19.37;;;-4.60;64.10;;;-6.30;76.76;99041.47;5042718;28;20461;-73
2024/01/11 02:06:26;;;;;;;30.50;18.03;;;-4.80;64.20;;;-6.34;77.30;99029.41;5030184;28;20501;-76
2024/01/11 02:08:56;;;;;;;28.87;18.90;;;-4.90;65.30;;;-6.32;76.86;99017.03;5039008;28;20450;-75
2024/01/11 02:11:24;;;;;;;35.17;18.10;;;-4.90;65.50;;;-6.59;77.54;99032.53;5042936;28;20531;-76
2024/01/11 02:13:51;;;;;;;33.00;19.00;;;-5.10;65.00;;;-6.77;78.54;99029.94;5041749;28;20462;-75
2024/01/11 02:16:20;;;;;;;36.60;18.77;;;-5.40;65.70;;;-6.88;78.72;99043.66;5048462;28;20462;-76
2024/01/11 02:18:47;;;;;;;29.17;18.00;;;-5.40;66.50;;;-6.97;79.13;99030.97;5042779;28;20470;-73
2024/01/11 02:21:18;;;;;;;33.33;17.93;;;-5.60;67.00;;;-6.87;79.61;99023.44;5044927;28;20448;-73
2024/01/11 02:23:54;;;;;;;31.90;19.60;;;-5.50;68.40;;;-6.94;80.47;99024.72;5038439;28;20887;-73
2024/01/11 02:26:22;;;;;;;34.30;18.60;;;-5.60;68.40;;;-6.99;80.43;99033.66;5034129;28;20469;-75
2024/01/11 02:28:49;;;;;;;35.43;19.23;;;-5.70;68.90;;;-7.05;80.42;99033.13;5034702;28;20455;-74
2024/01/11 02:31:17;;;;;;;34.30;18.07;;;-5.70;69.10;;;-7.05;81.19;99020.00;5040896;28;20458;-74
2024/01/11 02:33:45;;;;;;;30.93;19.13;;;-5.70;69.70;;;-7.12;80.86;99022.94;5036362;28;21002;-76
2024/01/11 02:36:12;;;;;;;31.40;18.63;;;-5.80;69.80;;;-7.16;81.36;99020.56;5044378;28;20465;-70
2024/01/11 02:38:40;;;;;;;30.30;17.90;;;-5.90;70.10;;;-7.12;80.93;99016.84;5040088;28;20487;-77
2024/01/11 02:41:09;;;;;;;34.70;18.73;;;-5.80;70.60;;;-7.18;80.37;99007.50;5042281;28;20529;-77
2024/01/11 02:43:36;;;;;;;38.03;17.97;;;-5.80;70.50;;;-7.03;80.47;99010.28;5048037;28;20465;-76
2024/01/11 02:46:04;;;;;;;37.13;20.88;;;-5.70;70.80;;;-6.93;79.88;99023.78;5048018;28;20938;-75
2024/01/11 02:48:31;;;;;;;37.43;18.90;;;-5.60;70.50;;;-6.94;79.86;99025.56;5032649;28;20204;-75
2024/01/11 02:50:59;;;;;;;35.20;19.07;;;-5.60;70.00;;;-7.19;81.16;99025.97;5034334;28;20849;-75
2024/01/11 02:53:27;;;;;;;34.37;20.53;;;-5.70;69.90;;;-7.28;81.68;99011.53;5037105;28;20450;-74
2024/01/11 02:55:54;;;;;;;37.03;19.97;;;-5.80;70.30;;;-7.95;82.17;98950.97;5037781;28;20464;-69
2024/01/11 02:58:22;;;;;;;36.33;20.20;;;-6.00;70.30;;;-7.42;82.78;99015.69;5051157;28;20536;-75
2024/01/11 03:00:50;;;;;;;39.80;20.80;;;-6.00;71.40;;;-7.59;83.46;99020.94;5046661;28;21019;-73
2024/01/11 03:03:17;;;;;;;43.73;23.97;;;-6.10;71.30;;;-7.56;83.63;99020.78;5042557;28;20446;-75
2024/01/11 03:05:44;;;;;;;49.83;21.83;;;-6.20;71.80;;;-7.57;83.89;99021.72;5035965;28;20447;-74
2024/01/11 03:08:12;;;;;;;47.87;25.43;;;-6.20;72.10;;;-7.55;83.07;99019.84;5042078;28;20445;-72
2024/01/11 03:10:39;;;;;;;44.40;22.43;;;-6.10;72.40;;;-7.69;83.22;99013.50;5042785;28;20455;-74
2024/01/11 03:13:08;;;;;;;37.80;21.47;;;-6.20;72.30;;;-7.68;83.51;99015.19;5038342;28;20488;-74
2024/01/11 03:15:36;;;;;;;41.20;20.40;;;-6.30;72.60;;;-7.60;84.06;99016.63;5040365;28;20465;-72
2024/01/11 03:18:04;;;;;;;31.20;18.40;;;-6.30;73.00;;;-7.71;83.80;99014.53;5035766;28;20462;-76
2024/01/11 03:20:31;;;;;;;36.43;19.97;;;-6.30;73.00;;;-7.74;84.11;99019.91;5036757;28;20450;-73
2024/01/11 03:22:59;;;;;;;34.83;19.37;;;-6.40;73.00;;;-7.83;84.22;99016.81;5042657;28;20458;-74
2024/01/11 03:25:26;;;;;;;35.40;18.97;;;-6.40;73.30;;;-7.83;84.45;99021.19;5041183;28;20457;-77
2024/01/11 03:27:53;;;;;;;32.03;18.20;;;-6.50;73.50;;;-7.76;84.32;99017.38;5041170;28;20455;-76
2024/01/11 03:30:20;;;;;;;28.50;17.27;;;-6.40;74.00;;;-7.61;84.19;99014.91;5045459;28;20466;-74
2024/01/11 03:32:49;;;;;;;30.70;17.47;;;-6.40;74.40;;;-7.74;84.20;99017.28;5041626;28;20465;-76
2024/01/11 03:35:16;;;;;;;36.47;18.87;;;-6.40;73.90;;;-7.89;84.33;99016.25;5038209;28;20460;-76
2024/01/11 03:37:43;;;;;;;32.10;17.50;;;-6.50;73.60;;;-7.90;85.08;98998.81;5040252;28;20545;-76
2024/01/11 03:40:11;;;;;;;31.27;18.30;;;-6.50;74.10;;;-7.99;85.01;99002.75;5046381;28;20982;-75
2024/01/11 03:42:39;;;;;;;34.73;17.73;;;-6.60;74.00;;;-8.08;85.21;98996.16;5046221;28;20823;-76
2024/01/11 03:45:07;;;;;;;34.57;18.73;;;-6.70;74.30;;;-8.15;85.88;99000.00;5040997;28;20445;-76
2024/01/11 03:47:35;;;;;;;34.43;18.77;;;-6.70;74.60;;;-8.24;86.50;98988.16;5045034;28;20465;-76
2024/01/11 03:50:03;;;;;;;33.80;18.90;;;-6.80;75.00;;;-8.22;86.71;98993.34;5053786;28;20461;-77
2024/01/11 03:52:31;;;;;;;34.00;17.30;;;-6.90;75.30;;;-8.76;86.55;98902.38;5048834;28;20740;-74
2024/01/11 03:54:58;;;;;;;32.30;18.87;;;-6.80;75.90;;;-8.32;87.38;98993.78;5044133;28;20998;-76
2024/01/11 03:57:25;;;;;;;35.47;18.77;;;-6.90;76.00;;;-8.49;87.80;98984.09;5043005;28;20518;-74
2024/01/11 03:59:53;;;;;;;39.17;19.20;;;-6.90;76.30;;;-8.36;87.82;98992.22;5048544;28;20485;-76
2024/01/11 04:02:20;;;;;;;30.60;18.25;;;-6.90;76.90;;;-8.15;86.77;98994.75;5043419;28;20508;-76
2024/01/11 04:04:47;;;;;;;32.97;18.50;;;-6.80;77.60;;;-8.33;87.66;98994.69;5046569;28;20668;-73
2024/01/11 04:07:16;;;;;;;40.37;18.87;;;-6.80;76.90;;;-8.12;86.87;98994.59;5045800;28;20455;-75
2024/01/11 04:09:44;;;;;;;33.37;18.23;;;-6.80;77.50;;;-8.23;87.12;98997.72;5042935;28;20856;-74
2024/01/11 04:12:11;;;;;;;33.30;18.10;;;-6.80;77.00;;;-8.21;86.50;99000.28;5045445;28;20453;-72
2024/01/11 04:14:40;;;;;;;36.57;18.50;;;-6.80;76.90;;;-8.11;86.46;99001.56;5041032;28;20459;-74
2024/01/11 04:17:07;;;;;;;37.63;18.60;;;-6.80;77.00;;;-7.99;85.55;99006.19;5057189;28;20525;-75
2024/01/11 04:19:35;;;;;;;30.20;18.40;;;-6.60;77.00;;;-8.26;86.14;99004.00;5047414;28;20505;-74
2024/01/11 04:22:02;;;;;;;37.97;19.07;;;-6.70;75.70;;;-8.35;86.99;99008.78;5045084;28;20443;-74
2024/01/11 04:24:31;;;;;;;35.40;18.77;;;-6.90;75.80;;;-8.48;88.62;99016.38;5047480;28;20454;-73
2024/01/11 04:26:58;;;;;;;31.47;17.50;;;-6.90;76.30;;;-8.52;88.27;98991.28;5043825;28;20461;-74
2024/01/11 04:29:26;;;;;;;34.80;19.30;;;-7.00;77.10;;;-8.17;87.91;99009.72;5040360;28;20962;-74
2024/01/11 04:31:53;;;;;;;29.27;17.63;;;-6.80;78.20;;;-8.07;86.73;99013.59;5042337;28;20446;-75
2024/01/11 04:34:20;;;;;;;36.17;18.20;;;-6.70;77.90;;;-8.19;86.45;99016.81;5062080;28;20821;-74
2024/01/11 04:36:47;;;;;;;34.72;17.85;;;-6.70;76.70;;;-8.37;86.77;99011.50;5047609;28;20462;-75
2024/01/11 04:39:15;;;;;;;35.93;17.43;;;-6.90;76.10;;;-8.44;86.96;99015.31;5037774;28;20216;-75
2024/01/11 04:41:43;;;;;;;36.83;19.63;;;-6.90;76.10;;;-8.34;87.27;99011.34;5046072;28;20465;-76
2024/01/11 04:44:11;;;;;;;30.27;16.47;;;-7.00;77.70;;;-8.27;86.86;99012.75;5036547;28;20451;-72
2024/01/11 04:46:38;;;;;;;30.00;17.50;;;-6.80;77.30;;;-8.27;86.41;99028.47;5043298;28;20464;-73
2024/01/11 04:49:06;;;;;;;30.30;17.02;;;-6.80;76.80;;;-8.42;86.86;99034.44;5048416;28;20812;-73
2024/01/11 04:51:33;;;;;;;31.37;19.60;;;-6.90;76.10;;;-8.57;87.59;99030.78;5046321;28;20302;-74
2024/01/11 04:54:00;;;;;;;32.47;18.38;;;-7.00;76.50;;;-8.68;88.84;99031.28;5057366;28;20812;-75
2024/01/11 04:56:30;;;;;;;34.03;17.57;;;-7.10;76.80;;;-8.37;88.44;99042.09;5049195;28;20240;-75
2024/01/11 04:58:59;;;;;;;39.43;19.50;;;-7.00;78.00;;;-8.59;88.53;99043.94;5055187;28;20630;-77
2024/01/11 05:01:27;;;;;;;41.80;18.23;;;-7.10;77.30;;;-8.65;89.69;99033.75;5033491;28;20480;-75
2024/01/11 05:03:54;;;;;;;36.80;18.40;;;-7.10;77.80;;;-8.74;89.18;99028.91;5042115;28;20458;-78
2024/01/11 05:06:23;;;;;;;35.33;18.70;;;-7.30;78.00;;;-8.59;89.55;99038.72;5062294;28;20904;-74
2024/01/11 05:08:52;;;;;;;37.47;18.47;;;-7.30;78.90;;;-8.59;89.07;99041.31;5052490;28;21006;-74
2024/01/11 05:11:20;;;;;;;30.23;18.23;;;-7.20;79.10;;;-8.76;89.61;99052.59;5064653;28;20511;-71
2024/01/11 05:13:49;;;;;;;37.80;20.27;;;-7.30;78.60;;;-8.79;91.03;99036.13;5065874;28;20458;-72
2024/01/11 05:16:28;;;;;;;35.83;20.10;;;-7.40;79.10;;;-8.85;91.02;99021.53;5045019;28;20458;-78
2024/01/11 05:18:57;;;;;;;36.42;19.52;;;-7.40;79.80;;;-8.85;90.94;99038.13;5045516;28;20441;-74
2024/01/11 05:21:25;;;;;;;33.15;18.98;;;-7.40;80.40;;;-8.88;91.52;99033.00;5041297;28;20676;-79
2024/01/11 05:23:52;;;;;;;38.20;20.13;;;-7.40;80.90;;;-8.87;93.15;99036.47;5041821;28;20198;-78
2024/01/11 05:26:21;;;;;;;36.93;19.23;;;-7.40;81.30;;;-8.68;93.09;99029.50;5031650;28;20463;-75
2024/01/11 05:28:48;;;;;;;32.40;20.87;;;-7.30;82.50;;;-8.66;92.70;99028.56;5037479;28;20457;-77
2024/01/11 05:31:16;;;;;;;32.13;19.48;;;-7.30;82.60;;;-8.46;91.70;99032.88;5040911;28;20449;-74
2024/01/11 05:33:45;;;;;;;39.93;20.10;;;-7.20;83.60;;;-8.62;91.89;99038.84;5039844;28;20215;-71
2024/01/11 05:36:12;;;;;;;35.50;19.57;;;-7.20;82.90;;;-8.63;91.62;99031.91;5043254;28;20456;-71
2024/01/11 05:38:40;;;;;;;32.03;19.77;;;-7.20;82.80;;;-8.68;92.22;99031.28;5039491;28;20458;-77
2024/01/11 05:41:08;;;;;;;38.30;21.33;;;-7.20;82.90;;;-8.65;92.88;99033.75;5037612;28;20521;-75
2024/01/11 05:43:54;;;;;;;41.80;22.20;;;-7.20;82.90;;;-8.60;92.41;99036.19;5099578;27;20576;-78
2024/01/11 05:46:21;;;;;;;32.27;19.50;;;-7.20;83.50;;;-8.41;91.88;99041.41;5055958;28;20938;-77
2024/01/11 05:48:48;;;;;;;36.90;20.80;;;-7.10;84.20;;;-8.30;91.69;99033.88;5073363;28;20462;-79
2024/01/11 05:51:15;;;;;;;51.07;25.87;;;-6.90;84.50;;;-8.27;91.93;99044.22;5066455;28;21076;-78
2024/01/11 05:53:43;;;;;;;37.83;24.90;;;-6.90;83.90;;;-8.46;91.96;99027.63;5056926;28;20462;-73
2024/01/11 05:56:11;;;;;;;40.07;23.20;;;-7.00;83.20;;;-8.29;92.33;99030.34;5060432;28;20456;-70
2024/01/11 05:58:38;;;;;;;38.00;21.83;;;-7.00;83.80;;;-8.38;92.08;99036.03;5066977;28;20462;-76
2024/01/11 06:01:07;;;;;;;35.70;20.30;;;-7.00;83.40;;;-8.31;92.00;99047.06;5064141;28;20443;-73
2024/01/11 06:03:34;;;;;;;35.60;21.67;;;-7.00;84.00;;;-8.37;91.63;99037.72;5055848;28;20488;-72
2024/01/11 06:06:02;;;;;;;35.60;21.03;;;-7.00;83.60;;;-8.38;92.64;99036.03;5060564;28;20441;-78
2024/01/11 06:08:31;;;;;;;37.47;20.23;;;-7.00;83.50;;;-8.39;92.67;99039.56;5060238;28;20873;-76
2024/01/11 06:10:58;;;;;;;33.93;19.73;;;-7.00;83.80;;;-8.48;92.72;99050.47;5054249;28;20489;-78
2024/01/11 06:13:25;;;;;;;36.13;21.47;;;-7.10;84.00;;;-8.03;90.85;99040.56;5057007;28;20798;-78
2024/01/11 06:15:53;;;;;;;33.03;18.87;;;-6.80;85.50;;;-8.03;89.83;99051.88;5066181;28;20439;-76
2024/01/11 06:18:21;;;;;;;37.40;19.60;;;-6.70;83.60;;;-8.26;90.85;99048.56;5056046;28;20516;-75
2024/01/11 06:20:48;;;;;;;46.03;21.40;;;-6.80;81.80;;;-8.47;90.96;99036.44;5052136;28;20462;-74
2024/01/11 06:23:16;;;;;;;35.17;19.67;;;-6.90;81.30;;;-8.41;91.16;99049.28;5069283;28;20485;-76
2024/01/11 06:25:46;;;;;;;42.20;23.50;;;-7.00;81.50;;;-8.50;92.21;99045.31;5067766;28;20542;-76
2024/01/11 06:28:13;;;;;;;38.07;21.87;;;-7.10;81.60;;;-8.58;92.14;99039.56;5055293;28;20452;-75
2024/01/11 06:30:44;;;;;;;38.47;22.30;;;-7.20;81.80;;;-8.67;91.87;99030.34;5046085;28;20454;-85
2024/01/11 06:33:12;;;;;;;40.37;22.00;;;-7.20;82.50;;;-8.57;92.09;99060.50;5065292;28;20438;-79
2024/01/11 06:35:42;;;;;;;45.43;22.37;;;-7.20;83.00;;;-8.45;92.35;99069.53;5056942;28;20439;-75
2024/01/11 06:38:10;;;;;;;35.33;18.47;;;-7.10;83.90;;;-8.46;92.10;99054.72;5066487;28;20473;-76
2024/01/11 06:40:37;;;;;;;41.77;22.60;;;-7.10;83.80;;;-8.27;91.52;99070.44;5055473;28;20847;-76
2024/01/11 06:43:04;;;;;;;33.43;20.60;;;-6.90;84.30;;;-8.06;91.15;99082.63;5064376;28;20492;-75
2024/01/11 06:45:32;;;;;;;34.60;19.90;;;-6.70;84.20;;;-8.00;90.36;99098.94;5060911;28;20453;-77
2024/01/11 06:47:59;;;;;;;37.33;20.40;;;-6.60;82.60;;;-8.47;91.19;99115.06;5061888;28;20437;-77
2024/01/11 06:50:30;;;;;;;36.60;21.90;;;-6.80;80.30;;;-8.62;90.89;99100.91;5054205;28;20447;-76
2024/01/11 06:53:01;;;;;;;37.03;21.50;;;-7.00;80.10;;;-8.00;94.88;99108.59;5067494;28;20455;-77
2024/01/11 06:55:29;;;;;;;33.70;19.33;;;-6.70;84.90;;;-7.87;94.62;99093.13;5045119;28;20457;-74
2024/01/11 06:57:58;;;;;;;36.77;21.00;;;-6.40;87.80;;;-8.32;93.31;99098.66;5042320;28;21222;-74
2024/01/11 07:00:26;;;;;;;44.10;20.50;;;-6.70;85.00;;;-7.89;95.17;99111.56;5038399;28;20958;-69
2024/01/11 07:02:54;;;;;;;40.37;20.03;;;-6.50;89.00;;;-8.26;92.56;99108.03;5041056;28;20504;-71
2024/01/11 07:05:23;;;;;;;30.20;18.37;;;-6.70;85.40;;;-7.78;94.96;99099.72;5044149;28;20962;-69
2024/01/11 07:07:52;;;;;;;35.27;18.77;;;-6.50;87.50;;;-7.74;94.85;99098.63;5057432;28;20454;-72
2024/01/11 07:10:21;;;;;;;30.03;19.20;;;-6.30;88.60;;;-7.56;96.70;99102.16;5054865;28;20473;-70
2024/01/11 07:12:48;;;;;;;40.17;20.00;;;-6.30;89.40;;;-7.87;94.79;99103.63;5045302;28;20454;-72
2024/01/11 07:15:20;;;;;;;30.87;18.50;;;-6.30;88.00;;;-7.98;93.67;99097.09;5046338;28;20444;-70
2024/01/11 07:17:47;;;;;;;34.63;18.40;;;-6.50;87.00;;;-7.18;98.12;99091.56;5062119;28;20797;-70
2024/01/11 07:20:16;;;;;;;30.43;18.43;;;-6.10;91.30;;;-7.61;95.81;99098.94;5037157;28;20588;-72
2024/01/11 07:22:43;;;;;;;42.93;21.00;;;-6.30;89.90;;;-7.13;97.52;99109.72;5029697;28;20542;-69
2024/01/11 07:25:11;;;;;;;32.77;18.87;;;-5.90;91.70;;;-7.54;94.53;99110.81;5049603;28;20802;-69
2024/01/11 07:27:40;;;;;;;37.57;20.10;;;-6.00;90.10;;;-7.54;92.66;99106.44;5051860;28;20466;-71
2024/01/11 07:30:09;;;;;;;42.25;19.00;;;-6.00;88.10;;;-7.68;91.29;99104.44;5042165;28;20453;-75
2024/01/11 07:32:36;;;;;;;40.00;22.70;;;-6.10;84.40;;;-7.47;93.72;99109.63;5041210;28;20660;-74
2024/01/11 07:35:06;;;;;;;45.63;25.27;;;-6.10;83.70;;;-8.05;90.24;99093.06;5029759;28;21033;-76
2024/01/11 07:37:34;;;;;;;39.43;23.93;;;-6.40;82.00;;;-7.64;92.60;99104.34;5034460;28;20516;-76
2024/01/11 07:40:01;;;;;;;38.10;22.43;;;-6.20;83.50;;;-7.46;91.79;99127.06;5059678;28;20825;-74
2024/01/11 07:42:29;;;;;;;40.87;23.40;;;-6.00;84.80;;;-7.63;90.43;99121.78;5061458;28;20513;-75
2024/01/11 07:44:57;;;;;;;36.93;21.33;;;-6.10;82.40;;;-7.66;91.90;99116.66;5049419;28;20473;-75
2024/01/11 07:47:24;;;;;;;38.30;21.00;;;-6.30;81.40;;;-7.57;91.92;99117.09;5045620;28;21094;-74
2024/01/11 07:49:51;;;;;;;37.73;21.53;;;-6.10;83.60;;;-7.12;93.50;99138.53;5047452;28;20474;-76
2024/01/11 07:52:19;;;;;;;39.10;24.43;;;-5.90;85.10;;;-7.07;93.47;99153.22;5035193;28;20468;-76
2024/01/11 07:54:46;;;;;;;76.43;36.40;;;-5.80;85.00;;;-7.35;90.79;99133.56;5045533;28;20508;-76
2024/01/11 07:57:14;;;;;;;57.70;27.57;;;-5.90;83.60;;;-7.46;90.71;99128.81;5045005;28;20443;-76
2024/01/11 07:59:41;;;;;;;37.53;20.20;;;-6.00;82.30;;;-6.78;95.49;99138.66;5046003;28;20461;-76
2024/01/11 08:02:10;;;;;;;45.67;25.53;;;-5.70;86.30;;;-6.95;92.06;99133.41;5051936;28;20460;-75
2024/01/11 08:04:38;;;;;;;53.00;25.57;;;-5.60;85.60;;;-6.83;93.88;99131.00;5048544;28;20976;-74
2024/01/11 08:07:06;;;;;;;46.10;25.60;;;-5.30;87.50;;;-7.06;91.31;99152.28;5040548;28;20796;-75
2024/01/11 08:09:33;;;;;;;41.47;22.27;;;-5.60;84.20;;;-7.41;88.60;99167.06;5049157;28;20505;-71
2024/01/11 08:12:00;;;;;;;43.10;22.60;;;-5.80;80.90;;;-7.56;88.71;99165.19;5056826;28;20458;-73
2024/01/11 08:14:28;;;;;;;43.73;23.73;;;-6.00;79.50;;;-7.72;88.86;99165.06;5049378;28;20450;-72
2024/01/11 08:16:55;;;;;;;52.20;28.40;;;-6.20;78.40;;;-7.69;88.25;99168.38;5070727;28;20911;-69
2024/01/11 08:19:24;;;;;;;50.40;25.90;;;-6.20;78.10;;;-7.57;88.07;99166.97;5047986;28;21043;-69
2024/01/11 08:21:51;;;;;;;43.20;20.30;;;-6.10;78.00;;;-7.69;87.87;99157.88;5040689;28;20463;-70
2024/01/11 08:24:18;;;;;;;35.50;20.33;;;-6.20;77.30;;;-7.63;88.67;99169.03;5046902;28;20505;-68
2024/01/11 08:26:45;;;;;;;40.07;21.70;;;-6.20;77.40;;;-7.56;88.61;99162.56;5053642;28;20473;-68
2024/01/11 08:29:14;;;;;;;42.50;23.20;;;-6.10;77.80;;;-7.50;88.19;99148.28;5047145;28;20533;-69
2024/01/11 08:31:43;;;;;;;40.70;22.63;;;-6.10;78.00;;;-7.54;88.76;99134.44;5050323;28;20459;-68
2024/01/11 08:34:10;;;;;;;37.67;21.80;;;-6.10;78.10;;;-7.29;88.04;99149.03;5054396;28;20452;-68
2024/01/11 08:36:39;;;;;;;44.67;22.10;;;-6.00;79.20;;;-7.24;87.74;99138.31;5045833;28;21211;-68
2024/01/11 08:39:07;;;;;;;39.97;20.93;;;-5.90;78.60;;;-7.01;86.97;99139.81;5036905;28;20450;-68
2024/01/11 08:41:35;;;;;;;38.93;20.90;;;-5.80;78.90;;;-7.04;86.69;99139.97;5061350;28;21200;-68
2024/01/11 08:44:02;;;;;;;38.57;23.10;;;-5.70;77.60;;;-6.99;85.63;99130.06;5038873;28;20459;-68
2024/01/11 08:46:30;;;;;;;44.97;22.60;;;-5.60;77.20;;;-6.90;85.13;99115.59;5040289;28;20501;-70
2024/01/11 08:48:58;;;;;;;34.37;20.83;;;-5.50;77.00;;;-6.71;84.43;99120.78;5050253;28;20437;-70
2024/01/11 08:51:25;;;;;;;40.83;21.90;;;-5.40;76.40;;;-6.59;84.42;99106.16;5050019;28;20458;-72
2024/01/11 08:53:54;;;;;;;37.97;20.83;;;-5.30;76.10;;;-6.53;84.37;99102.34;5054187;28;21340;-73
2024/01/11 08:56:21;;;;;;;40.00;22.13;;;-5.20;76.10;;;-6.50;83.96;99104.81;5054540;28;20462;-74
2024/01/11 08:58:49;;;;;;;33.27;19.30;;;-5.20;75.80;;;-6.43;84.09;99111.47;5050460;28;20467;-75
2024/01/11 09:01:17;;;;;;;41.37;21.67;;;-5.10;75.60;;;-6.64;84.55;99051.16;5026188;28;20438;-74
2024/01/11 09:03:47;;;;;;;41.37;22.87;;;-5.00;75.90;;;-6.19;85.05;99087.41;5037552;28;20478;-74
2024/01/11 09:06:15;;;;;;;36.57;20.60;;;-4.90;76.30;;;-6.04;84.92;99077.84;5044148;28;20525;-74
2024/01/11 09:08:42;;;;;;;38.40;22.13;;;-4.80;76.70;;;-5.73;83.21;99084.00;5042693;28;20441;-74
2024/01/11 09:11:11;;;;;;;41.50;21.47;;;-4.50;76.80;;;-5.56;80.14;99090.94;5040681;28;20534;-73
2024/01/11 09:13:40;;;;;;;43.70;24.00;;;-4.30;74.50;;;-5.53;80.68;99093.44;5040116;28;20583;-73
2024/01/11 09:16:09;;;;;;;41.87;22.20;;;-4.20;73.90;;;-5.38;80.92;99096.97;5058835;28;20461;-74
2024/01/11 09:18:36;;;;;;;40.33;21.20;;;-4.10;73.70;;;-5.21;79.68;99113.59;5037892;28;20504;-74
2024/01/11 09:21:04;;;;;;;35.23;20.10;;;-3.90;73.30;;;-5.18;79.13;99110.78;5051683;28;20544;-73
2024/01/11 09:23:33;;;;;;;37.80;21.97;;;-3.90;72.70;;;-5.09;78.39;99097.06;5046475;28;20465;-72
2024/01/11 09:26:01;;;;;;;42.83;22.80;;;-3.80;72.40;;;-5.01;77.49;99086.91;5043739;28;20460;-73
2024/01/11 09:28:30;;;;;;;39.60;24.37;;;-3.70;71.80;;;-5.04;76.81;99081.81;5048605;28;20470;-72
2024/01/11 09:30:59;;;;;;;35.97;22.70;;;-3.60;71.50;;;-5.01;76.66;99120.34;5043024;28;20453;-72
2024/01/11 09:33:27;;;;;;;44.77;24.57;;;-3.60;70.70;;;-5.34;77.07;99055.50;5038673;28;20608;-73
2024/01/11 09:35:55;;;;;;;39.63;23.90;;;-3.60;70.70;;;-5.20;77.48;99131.09;5048896;28;20462;-73
2024/01/11 09:38:23;;;;;;;37.67;25.73;;;-3.60;70.20;;;-5.36;78.19;99145.13;5045520;28;20469;-72
2024/01/11 09:41:04;;;;;;;36.87;21.23;;;-3.80;70.30;;;-5.31;78.03;99145.75;5046797;28;20572;-73
2024/01/11 09:43:34;;;;;;;38.00;20.70;;;-3.80;70.80;;;-5.25;78.15;99155.06;5047976;28;20477;-73
2024/01/11 09:46:06;;;;;;;32.87;19.90;;;-3.80;70.50;;;-5.29;78.30;99148.28;5054318;28;20466;-72
2024/01/11 09:48:35;;;;;;;38.03;21.50;;;-3.70;70.60;;;-5.18;78.47;99145.88;5056647;28;20491;-72
2024/01/11 09:51:04;;;;;;;36.97;21.43;;;-3.70;70.70;;;-5.43;78.61;99142.00;5044122;28;20465;-73
2024/01/11 09:53:33;;;;;;;34.63;21.50;;;-3.80;70.40;;;-5.27;79.42;99126.19;5060911;28;20493;-74
2024/01/11 09:56:01;;;;;;;35.07;21.40;;;-3.80;70.90;;;-4.98;78.02;99112.25;5043430;28;20458;-73
2024/01/11 09:58:29;;;;;;;38.50;22.20;;;-3.70;71.00;;;-4.80;77.46;99101.56;5039961;28;20457;-73
2024/01/11 10:00:59;;;;;;;35.47;21.57;;;-3.50;70.70;;;-4.76;77.21;99103.09;5060276;28;20539;-74
2024/01/11 10:03:27;;;;;;;33.20;20.10;;;-3.40;70.50;;;-4.63;75.78;99108.47;5063873;28;20988;-75
2024/01/11 10:05:59;;;;;;;38.67;21.87;;;-3.30;70.00;;;-4.50;75.85;99113.84;5054609;28;20469;-73
2024/01/11 10:08:27;;;;;;;35.43;20.70;;;-3.20;70.10;;;-4.42;75.85;99111.63;5050013;28;20537;-73